Hearne, Texas
Current Conditions -  °F | °C
As of 11:35 PM on Wednesday 22 Oct 2014 (Local Time) from KLHB Reporting Station
Clear Clear  
Wind Chill: 68°   Ceiling: Unl
Heat Index: 68°   Visibility: 10mi
Dew Point: 58°   Wind: 3mph
Humidity: 70%   Direction: 80°E
Pressure: 30.11"   Gusts: NA
Location:  30.87°N, 96.6°W
Report Text: KLHB 230435Z AUTO 08003KT 10SM CLR 20/14 A3011 RMK AO2 T01980142
Loading
Personal Weather Stations






























Interactive Weather Map
Tropical Storm Tracking
New forecast layout! Learn more

10-Day Weather Forecast

Advertisements
Track Severe Weather on mobile